メインページ
METAR-TAF:

METAR-TAF

空港 :

フォス・ド・イグアス国際空港

フォス・ド・イグアス, パラナ州, ブラジル

緯度: 25-31S, 経度: 054-35W, 海抜: 180m

現時点の気象観測

当レポートは29分前の04:00(UTC)に作成
の風 2kt
気温 12°C
湿度 94%
気圧 1020 hPa
視程10km以上
1,500メートル以下は雲なし、積乱雲なし

METAR: SBFI 240400Z 19002KT CAVOK 12/11 Q1020

時間: 01:29 (04:29 UTC)

予報

当レポートは6時間29分前の22:00(UTC)に作成
予報は24日の 00時(UTC)から 24日の 24時(UTC)まで有効
南/南西の風 5kt
視程10km以上
1,500メートル以下は雲なし、積乱雲なし
確率 40%
24日の 08時(UTC)から 24日の 12時(UTC)まで
視程: 2000m
散在霧
24日の 12時(UTC)から 24日の 14時(UTC)まで徐々に
の風 6kt

TAF: SBFI 232200Z 2400/2424 20005KT CAVOK TN11/2409Z TX29/2418Z PROB40 2408/2412 2000 BCFG NSC BECMG 2412/2414 10006KT RMK PER

4,000以上の空港の気象観測と天気予報(METAR報とTAF報)

利用可能な観測所は地図上に黄色い丸と赤い丸で示す。

丸の上にカーソルを重ねると観測所名を参照できる。

次にクリックすると気象観測と天気予報を参照できる。

マップの切り替え:黒色「×」印の緑ボタンをクリックして拡大、「-」印の緑ボタンをクリックして縮小、緑色の三角印をクリックして隣りの地図に切り替え


METAR-TAF: